Berthoud, CO (80513)

12:23 PM MDT on August 27, 2014 (GMT -0600)
Sedona Hills | Change Station
CLOSE
Current Station
Personal Weather Station
Location: Berthoud, CO
Elevation: 5479 ft
Nearby Weather Stations

Elev 5479 ft 40.33 °N, 105.19 °W | Updated 5 seconds ago

Partly Cloudy
Partly Cloudy
71.2 °F
Feels Like 76 °F
N
9.0
Wind Variable Wind from NE
Gusts 11.0 mph

Today
High -- | Low -- °F
--% Chance of Precip.
Yesterday
High -- | Low -- °F
Precip. -- in
6:23 AM 7:40 PM
Waxing Crescent, 4% visible
Pressure 30.17 in
Visibility 5.0 miles
Clouds Clear
Heat Index 76 °F
Dew Point 57 °F
Humidity 60%
Rainfall 0.00 in
Snow Depth Not available.
UV 10 out of 12
Pollen 8.10 out of 12
Ozone Good
PM2.5 Moderate
Flu Activity Not available.
METAR KLMO 271814Z AUTO 35005KT 5SM HZ CLR 24/14 A3017 RMK AO2 T02350144

More Conditions Fewer Conditions

Pressure 30.17 in
Visibility 5.0 miles
Clouds Clear
Heat Index 76 °F
Dew Point 57 °F
Humidity 60%
Rainfall 0.00 in
Snow Depth Not available.
UV 10 out of 12
Pollen 8.10 out of 12
Ozone Good
PM2.5 Moderate
Flu Activity Not available.
METAR KLMO 271814Z AUTO 35005KT 5SM HZ CLR 24/14 A3017 RMK AO2 T02350144

More Conditions Fewer Conditions

10-Day Weather Forecast

Almanac

Astronomy

Aug. 27, 2014 Rise Set
Actual Time 6:23 AM MDT 7:40 PM MDT
Civil Twilight 5:54 AM MDT 8:08 PM MDT
Nautical Twilight 5:21 AM MDT 8:41 PM MDT
Astronomical Twilight 4:45 AM MDT 9:17 PM MDT
Moon 8:22 AM MDT 8:33 PM MDT
Length of Visible Light 14h 13m
Length of Day
13h 16m
Tomorrow will be 2m 31s shorter.
Waxing Crescent, 4% of the Moon is Illuminated
Today
Waxing Crescent
Sep 2
First Quarter
Sep 8
Full
Sep 15
Last Quarter
Sep 24
New

Today's Extremes

State Highs State Lows

Community

WunderPhotos

Upload Photos

1,747,750 photos uploaded!

Nearby

Air Quality

  Air Quality AQ Index Pollutant
Yesterday Good
OZONE
Yesterday Good
PM2.5
Current Moderate
PM2.5
Current Good
OZONE
Wednesday Good
PM2.5
Wednesday Good
OZONE

Snow Depth

Station Depth Elevation
Copeland Lake 0 in 8600 ft
Wild Basin 0 in 9560 ft
Niwot 0 in 9910 ft
University Camp 0 in 10300 ft
Willow Park 3 in 10700 ft

Earthquake Activity

City Distance Mag. Time & Date
No recent earthquake activity has been reported nearby.
Minimum magnitude displayed is 2.5.

Coastal Water Temperatures

Place Temperature
No Stations Reporting

Nearby Weather Stations